Time;durP1;ratioP1;P1;durP2;ratioP2;P2;SDS_P1;SDS_P2;PMS_P1;PMS_P2;Temp;Humidity;BMP_temperature;BMP_pressure;BME280_temperature;BME280_humidity;BME280_pressure;Samples;Min_cycle;Max_cycle;Signal;HPM_P1;HPM_P2
2023/11/23 00:00:39;;;;;;;59.03;26.02;;;8.00;99.90;;;;;;5072656;28;20056;-72
2023/11/23 00:03:05;;;;;;;52.70;25.92;;;8.10;99.90;;;;;;5036299;28;20040;-72
2023/11/23 00:05:31;;;;;;;59.17;25.77;;;8.10;99.90;;;;;;5060805;28;20045;-72
2023/11/23 00:07:57;;;;;;;56.97;25.63;;;8.20;99.90;;;;;;5066684;28;20037;-72
2023/11/23 00:10:23;;;;;;;59.85;25.58;;;8.20;99.90;;;;;;5065272;28;20044;-72
2023/11/23 00:12:48;;;;;;;57.25;26.70;;;8.30;99.90;;;;;;5064555;28;20033;-72
2023/11/23 00:15:14;;;;;;;59.95;27.98;;;8.20;99.90;;;;;;5043251;28;20152;-72
2023/11/23 00:17:39;;;;;;;63.88;27.20;;;8.30;99.90;;;;;;5054105;28;20086;-72
2023/11/23 00:20:06;;;;;;;61.75;27.48;;;8.30;99.90;;;;;;5051986;28;20076;-72
2023/11/23 00:22:33;;;;;;;52.70;26.45;;;8.30;99.90;;;;;;5052323;28;20097;-72
2023/11/23 00:25:03;;;;;;;60.20;26.42;;;8.30;99.90;;;;;;5046052;28;20525;-72
2023/11/23 00:27:28;;;;;;;57.78;26.95;;;8.40;99.90;;;;;;5064157;28;20047;-72
2023/11/23 00:29:54;;;;;;;69.32;27.85;;;8.40;99.90;;;;;;5052837;28;20029;-72
2023/11/23 00:32:20;;;;;;;57.28;26.23;;;8.40;99.90;;;;;;5063480;28;20043;-72
2023/11/23 00:34:45;;;;;;;64.47;27.95;;;8.40;99.90;;;;;;5075053;28;20028;-72
2023/11/23 00:37:15;;;;;;;66.75;27.38;;;8.40;99.90;;;;;;5051576;28;20043;-72
2023/11/23 00:39:40;;;;;;;61.55;27.35;;;8.50;99.90;;;;;;5056934;28;20047;-72
2023/11/23 00:42:06;;;;;;;66.28;27.23;;;8.50;99.90;;;;;;5054055;28;20049;-71
2023/11/23 00:44:32;;;;;;;53.72;25.67;;;8.50;99.90;;;;;;5050898;28;20040;-72
2023/11/23 00:46:58;;;;;;;56.33;26.27;;;8.50;99.90;;;;;;5055676;28;20127;-72
2023/11/23 00:49:24;;;;;;;57.50;28.65;;;8.60;99.90;;;;;;5057515;28;20126;-72
2023/11/23 00:51:53;;;;;;;50.28;25.90;;;9.10;99.90;;;;;;5056091;28;20032;-72
2023/11/23 00:54:22;;;;;;;62.88;27.23;;;8.70;99.90;;;;;;5053734;28;20053;-72
2023/11/23 00:56:47;;;;;;;61.15;26.58;;;8.70;99.90;;;;;;5057710;28;20060;-72
2023/11/23 00:59:13;;;;;;;57.35;27.25;;;8.70;99.90;;;;;;5054793;28;20041;-72
2023/11/23 01:01:39;;;;;;;56.97;26.58;;;8.70;99.90;;;;;;5068289;28;20137;-73
2023/11/23 01:04:05;;;;;;;55.47;25.85;;;8.70;99.90;;;;;;5072662;28;20044;-73
2023/11/23 01:06:31;;;;;;;54.20;26.10;;;8.70;99.90;;;;;;5056421;28;20063;-73
2023/11/23 01:08:56;;;;;;;59.92;27.40;;;8.70;99.90;;;;;;5046393;28;20211;-72
2023/11/23 01:11:23;;;;;;;61.33;27.05;;;8.70;99.90;;;;;;5053022;28;20060;-72
2023/11/23 01:13:49;;;;;;;60.80;27.27;;;8.70;99.90;;;;;;5071416;28;20044;-72
2023/11/23 01:16:15;;;;;;;61.60;27.13;;;8.70;99.90;;;;;;5049275;28;20416;-72
2023/11/23 01:18:42;;;;;;;64.47;28.88;;;8.90;99.90;;;;;;5074562;28;20062;-72
2023/11/23 01:21:08;;;;;;;59.15;27.20;;;8.80;99.90;;;;;;5073964;28;20036;-73
2023/11/23 01:23:33;;;;;;;64.28;28.13;;;8.80;99.90;;;;;;5046953;28;20058;-72
2023/11/23 01:26:00;;;;;;;62.60;28.75;;;8.80;99.90;;;;;;5054534;28;20037;-72
2023/11/23 01:28:25;;;;;;;58.78;27.40;;;8.80;99.90;;;;;;5039187;28;20043;-72
2023/11/23 01:30:51;;;;;;;56.13;26.48;;;8.80;99.90;;;;;;5036692;28;20032;-72
2023/11/23 01:33:22;;;;;;;57.83;26.48;;;8.80;99.90;;;;;;5070153;28;20040;-73
2023/11/23 01:35:48;;;;;;;57.47;26.90;;;8.80;99.90;;;;;;5066155;28;20040;-72
2023/11/23 01:38:14;;;;;;;64.25;28.08;;;8.90;99.90;;;;;;5073487;28;20040;-71
2023/11/23 01:40:39;;;;;;;62.47;28.35;;;8.90;99.90;;;;;;5039129;28;20075;-72
2023/11/23 01:43:09;;;;;;;57.55;27.48;;;8.90;99.90;;;;;;5051594;28;20039;-72
2023/11/23 01:45:35;;;;;;;62.25;27.23;;;8.90;99.90;;;;;;5060820;28;20032;-71
2023/11/23 01:48:03;;;;;;;53.70;27.10;;;8.90;99.90;;;;;;5070103;28;20033;-72
2023/11/23 01:50:31;;;;;;;64.13;28.52;;;8.90;99.90;;;;;;5035342;28;20029;-72
2023/11/23 01:52:58;;;;;;;56.05;27.00;;;8.90;99.90;;;;;;5032897;28;20044;-72
2023/11/23 01:55:24;;;;;;;60.55;27.50;;;8.90;99.90;;;;;;5035557;28;20404;-72
2023/11/23 01:57:52;;;;;;;61.90;27.40;;;9.00;99.90;;;;;;5058204;28;20489;-72
2023/11/23 02:00:19;;;;;;;63.65;27.50;;;9.00;99.90;;;;;;5047654;28;20142;-72
2023/11/23 02:02:45;;;;;;;63.50;26.95;;;9.00;99.90;;;;;;5046145;28;20048;-72
2023/11/23 02:05:11;;;;;;;56.47;25.85;;;9.00;99.90;;;;;;5049736;28;20068;-72
2023/11/23 02:07:37;;;;;;;61.85;26.45;;;9.00;99.90;;;;;;5056646;28;20382;-72
2023/11/23 02:10:03;;;;;;;56.13;26.13;;;9.10;99.90;;;;;;5054633;28;20056;-72
2023/11/23 02:12:29;;;;;;;61.05;25.85;;;9.10;99.90;;;;;;5034329;28;20433;-72
2023/11/23 02:14:55;;;;;;;55.45;24.95;;;9.10;99.90;;;;;;5048284;28;20170;-72
2023/11/23 02:17:21;;;;;;;51.33;25.85;;;9.10;99.90;;;;;;5054623;28;20120;-72
2023/11/23 02:19:48;;;;;;;56.05;24.60;;;9.10;99.90;;;;;;5052752;28;20504;-72
2023/11/23 02:22:15;;;;;;;55.40;24.23;;;9.10;99.90;;;;;;5072335;28;20071;-72
2023/11/23 02:24:43;;;;;;;46.70;22.45;;;9.10;99.90;;;;;;5055075;28;20102;-72
2023/11/23 02:27:12;;;;;;;48.70;21.95;;;9.20;99.90;;;;;;5074128;28;20043;-72
2023/11/23 02:29:38;;;;;;;46.03;20.67;;;9.20;99.90;;;;;;5054365;28;20122;-72
2023/11/23 02:32:06;;;;;;;42.15;19.27;;;9.30;99.90;;;;;;5048862;28;20032;-72
2023/11/23 02:34:35;;;;;;;41.30;19.50;;;9.30;99.90;;;;;;5035444;28;20066;-72
2023/11/23 02:37:01;;;;;;;41.42;19.20;;;9.30;99.90;;;;;;5050741;28;20086;-72
2023/11/23 02:39:27;;;;;;;39.55;17.15;;;9.30;99.90;;;;;;5052525;28;20036;-72
2023/11/23 02:41:54;;;;;;;35.63;16.90;;;9.40;99.90;;;;;;5072343;28;20036;-72
2023/11/23 02:44:20;;;;;;;35.95;16.90;;;9.50;99.90;;;;;;5046556;28;20033;-71
2023/11/23 02:46:45;;;;;;;36.22;16.95;;;9.50;99.90;;;;;;5060739;28;20075;-72
2023/11/23 02:49:11;;;;;;;36.28;15.88;;;9.60;99.90;;;;;;5044733;28;20080;-72
2023/11/23 02:51:36;;;;;;;33.50;14.82;;;9.60;99.90;;;;;;5052064;28;20037;-72
2023/11/23 02:54:03;;;;;;;30.00;14.38;;;9.60;99.90;;;;;;5034948;28;20036;-72
2023/11/23 02:56:29;;;;;;;36.58;14.40;;;9.70;99.90;;;;;;5054393;28;20032;-72
2023/11/23 02:58:55;;;;;;;34.17;14.45;;;9.70;99.90;;;;;;5053997;28;20541;-72
2023/11/23 03:01:21;;;;;;;28.23;14.05;;;9.80;99.90;;;;;;5048515;28;20054;-72
2023/11/23 03:03:48;;;;;;;31.92;13.27;;;9.90;99.90;;;;;;5070937;28;20040;-72
2023/11/23 03:06:14;;;;;;;24.63;13.18;;;9.80;99.90;;;;;;5071676;28;20040;-72
2023/11/23 03:08:40;;;;;;;26.63;12.80;;;9.90;99.90;;;;;;5063710;28;20032;-73
2023/11/23 03:11:05;;;;;;;30.50;13.07;;;9.90;99.90;;;;;;5051613;28;20377;-72
2023/11/23 03:13:31;;;;;;;30.30;13.23;;;9.90;99.90;;;;;;5053316;28;20147;-72
2023/11/23 03:15:56;;;;;;;26.98;13.05;;;9.90;99.90;;;;;;5050992;28;20032;-72
2023/11/23 03:18:22;;;;;;;33.83;13.18;;;10.00;99.90;;;;;;5053570;28;20033;-72
2023/11/23 03:20:47;;;;;;;29.35;13.93;;;10.00;99.90;;;;;;5052981;28;20105;-72
2023/11/23 03:23:13;;;;;;;34.15;12.80;;;10.00;99.90;;;;;;5068015;28;20049;-72
2023/11/23 03:25:39;;;;;;;34.13;13.05;;;9.90;99.90;;;;;;5053075;28;20401;-73
2023/11/23 03:28:07;;;;;;;26.98;11.68;;;10.00;99.90;;;;;;5068138;28;20405;-72
2023/11/23 03:30:33;;;;;;;22.98;11.40;;;10.00;99.90;;;;;;5060032;28;20090;-72
2023/11/23 03:32:59;;;;;;;29.75;13.02;;;10.00;99.90;;;;;;5046740;28;20493;-72
2023/11/23 03:35:24;;;;;;;32.70;11.40;;;10.10;99.90;;;;;;5034877;28;20158;-72
2023/11/23 03:37:50;;;;;;;23.98;12.23;;;10.00;99.90;;;;;;5031241;28;20089;-72
2023/11/23 03:40:16;;;;;;;31.13;12.95;;;10.00;99.90;;;;;;5064114;28;20095;-72
2023/11/23 03:42:43;;;;;;;26.08;11.65;;;10.00;99.90;;;;;;5057154;28;20036;-73
2023/11/23 03:45:09;;;;;;;25.77;10.55;;;10.00;99.90;;;;;;5048499;28;20073;-73
2023/11/23 03:47:35;;;;;;;29.25;11.80;;;10.00;99.90;;;;;;5050701;28;20048;-72
2023/11/23 03:50:05;;;;;;;26.20;11.32;;;10.00;99.90;;;;;;5067677;28;20040;-73
2023/11/23 03:52:30;;;;;;;31.52;10.95;;;9.50;99.90;;;;;;5063189;28;20049;-73
2023/11/23 03:54:56;;;;;;;26.80;9.52;;;10.00;99.90;;;;;;5050434;28;20047;-73
2023/11/23 03:57:21;;;;;;;26.48;10.35;;;10.10;99.90;;;;;;5071875;28;20068;-73
2023/11/23 03:59:47;;;;;;;26.73;10.70;;;10.10;99.90;;;;;;5052783;28;20044;-73
2023/11/23 04:02:13;;;;;;;27.13;9.85;;;10.10;99.90;;;;;;5064911;28;20041;-72
2023/11/23 04:04:42;;;;;;;22.67;8.80;;;10.10;99.90;;;;;;5071811;28;20040;-73
2023/11/23 04:07:07;;;;;;;30.88;9.40;;;10.10;99.90;;;;;;5069593;28;20032;-72
2023/11/23 04:09:33;;;;;;;24.48;9.13;;;10.10;99.90;;;;;;5065004;28;20448;-72
2023/11/23 04:11:58;;;;;;;21.98;8.55;;;10.10;99.90;;;;;;5063435;28;20029;-72
2023/11/23 04:14:24;;;;;;;23.85;9.32;;;10.10;99.90;;;;;;5049113;28;20040;-72
2023/11/23 04:16:49;;;;;;;23.48;9.20;;;10.10;99.90;;;;;;5067251;28;20568;-73
2023/11/23 04:19:21;;;;;;;20.95;7.60;;;10.10;99.90;;;;;;5052901;28;20048;-73
2023/11/23 04:21:46;;;;;;;23.95;8.27;;;10.20;99.90;;;;;;5050039;28;20043;-72
2023/11/23 04:24:12;;;;;;;20.90;8.02;;;10.20;99.90;;;;;;5046174;28;20534;-72
2023/11/23 04:26:49;;;;;;;23.40;7.82;;;10.10;99.90;;;;;;5069597;28;20067;-72
2023/11/23 04:29:14;;;;;;;22.38;7.47;;;10.10;99.90;;;;;;5051864;28;20047;-73
2023/11/23 04:31:40;;;;;;;23.92;7.72;;;10.20;99.90;;;;;;5064944;28;20029;-73
2023/11/23 04:34:06;;;;;;;22.50;7.95;;;10.10;99.90;;;;;;5055495;28;20047;-73
2023/11/23 04:36:32;;;;;;;17.38;7.55;;;10.20;99.90;;;;;;5051304;28;20497;-73
2023/11/23 04:39:00;;;;;;;20.73;7.25;;;10.10;99.90;;;;;;5039418;28;20052;-73
2023/11/23 04:41:26;;;;;;;19.40;7.38;;;10.10;99.90;;;;;;5057426;28;20068;-73
2023/11/23 04:43:51;;;;;;;19.63;6.78;;;10.20;99.90;;;;;;5049492;28;20068;-73
2023/11/23 04:46:17;;;;;;;19.02;6.88;;;10.10;99.90;;;;;;5033959;28;20040;-73
2023/11/23 04:48:42;;;;;;;20.30;6.20;;;10.20;99.90;;;;;;5063118;28;20028;-73
2023/11/23 04:51:08;;;;;;;16.02;6.18;;;10.10;99.90;;;;;;5072733;28;20036;-72
2023/11/23 04:53:33;;;;;;;19.38;5.88;;;10.20;99.90;;;;;;5092859;22;20032;-76
2023/11/23 04:55:59;;;;;;;20.63;5.47;;;10.20;99.90;;;;;;5047200;28;20066;-76
2023/11/23 04:58:26;;;;;;;14.25;5.20;;;10.20;99.90;;;;;;5041815;28;20095;-77
2023/11/23 05:00:51;;;;;;;22.55;4.90;;;10.20;99.90;;;;;;5036348;28;20128;-76
2023/11/23 05:03:18;;;;;;;15.35;4.78;;;10.20;99.90;;;;;;5047771;28;20128;-77
2023/11/23 05:05:43;;;;;;;19.17;4.80;;;10.20;99.90;;;;;;5044849;28;20037;-76
2023/11/23 05:08:09;;;;;;;15.77;4.10;;;10.30;99.90;;;;;;5015875;28;20045;-77
2023/11/23 05:10:35;;;;;;;18.98;4.20;;;10.30;99.90;;;;;;5031177;28;20037;-76
2023/11/23 05:13:00;;;;;;;19.70;4.00;;;10.20;99.90;;;;;;5035269;28;20051;-76
2023/11/23 05:15:26;;;;;;;13.50;3.90;;;10.30;99.90;;;;;;5026448;28;20111;-76
2023/11/23 05:17:51;;;;;;;20.75;4.20;;;10.40;99.90;;;;;;5031889;28;20064;-77
2023/11/23 05:20:18;;;;;;;13.32;3.85;;;10.40;99.90;;;;;;5031895;28;20090;-76
2023/11/23 05:22:45;;;;;;;17.65;4.05;;;10.30;99.90;;;;;;5030153;28;20045;-76
2023/11/23 05:25:11;;;;;;;18.38;4.68;;;10.30;99.90;;;;;;5027072;28;20660;-76
2023/11/23 05:27:36;;;;;;;19.13;4.13;;;10.30;99.90;;;;;;5030077;28;20128;-76
2023/11/23 05:30:02;;;;;;;20.55;4.50;;;10.40;99.90;;;;;;5048397;28;20449;-77
2023/11/23 05:32:28;;;;;;;14.68;4.00;;;10.30;99.90;;;;;;5026893;28;20045;-77
2023/11/23 05:34:53;;;;;;;14.13;4.10;;;10.30;99.90;;;;;;5034227;28;20036;-76
2023/11/23 05:37:19;;;;;;;17.23;3.90;;;10.30;99.90;;;;;;5038594;28;20056;-77
2023/11/23 05:39:44;;;;;;;15.77;3.83;;;10.40;99.90;;;;;;5024720;28;20501;-76
2023/11/23 05:42:10;;;;;;;14.07;3.83;;;10.30;99.90;;;;;;5024412;28;20040;-78
2023/11/23 05:44:36;;;;;;;18.83;3.78;;;10.40;99.90;;;;;;5027921;28;20041;-76
2023/11/23 05:47:02;;;;;;;15.07;3.50;;;10.30;99.90;;;;;;5050602;28;20044;-76
2023/11/23 05:49:27;;;;;;;19.15;4.50;;;10.40;99.90;;;;;;5028689;28;20099;-76
2023/11/23 05:51:53;;;;;;;17.10;3.75;;;10.40;99.90;;;;;;5025402;28;20040;-76
2023/11/23 05:54:18;;;;;;;16.65;4.07;;;10.40;99.90;;;;;;5029711;28;20041;-76
2023/11/23 05:56:45;;;;;;;16.23;3.85;;;10.40;99.90;;;;;;5047717;28;20096;-76
2023/11/23 05:59:11;;;;;;;17.85;4.03;;;10.40;99.90;;;;;;5031248;28;20068;-77
2023/11/23 06:01:36;;;;;;;19.52;4.05;;;10.40;99.90;;;;;;5018168;28;20084;-76
2023/11/23 06:04:02;;;;;;;19.98;3.75;;;10.40;99.90;;;;;;5033013;28;20128;-76
2023/11/23 06:06:29;;;;;;;16.70;4.43;;;10.40;99.90;;;;;;5051558;28;20110;-77
2023/11/23 06:08:55;;;;;;;18.58;3.88;;;10.30;99.90;;;;;;5018100;28;20075;-76
2023/11/23 06:11:20;;;;;;;18.90;3.95;;;10.40;99.90;;;;;;5017012;28;20069;-76
2023/11/23 06:13:46;;;;;;;15.00;3.50;;;10.40;99.90;;;;;;5031818;28;20037;-76
2023/11/23 06:16:12;;;;;;;14.00;3.40;;;10.40;99.90;;;;;;5023109;28;20476;-76
2023/11/23 06:18:38;;;;;;;18.45;4.00;;;10.40;99.90;;;;;;5026023;28;20109;-76
2023/11/23 06:21:04;;;;;;;22.13;4.00;;;10.40;99.90;;;;;;5025908;28;20045;-77
2023/11/23 06:23:30;;;;;;;21.05;3.88;;;10.40;99.90;;;;;;5027507;28;20128;-76
2023/11/23 06:25:56;;;;;;;20.02;4.07;;;10.40;99.90;;;;;;5023022;28;20059;-76
2023/11/23 06:28:22;;;;;;;16.65;3.50;;;10.40;99.90;;;;;;5023729;28;20049;-76
2023/11/23 06:30:47;;;;;;;16.20;3.17;;;10.40;99.90;;;;;;5029532;28;20085;-76
2023/11/23 06:33:13;;;;;;;14.20;3.75;;;10.50;99.90;;;;;;5031927;28;20049;-75
2023/11/23 06:35:40;;;;;;;17.02;3.40;;;10.50;99.90;;;;;;5032387;28;20040;-75
2023/11/23 06:38:05;;;;;;;11.98;3.58;;;10.50;99.90;;;;;;5034244;28;20041;-75
2023/11/23 06:40:34;;;;;;;23.70;3.70;;;10.50;99.90;;;;;;5023867;28;20045;-76
2023/11/23 06:43:03;;;;;;;12.27;3.05;;;10.50;99.90;;;;;;5039517;28;20401;-76
2023/11/23 06:45:29;;;;;;;17.05;3.60;;;10.50;99.90;;;;;;5044847;28;20108;-75
2023/11/23 06:47:55;;;;;;;15.40;3.20;;;10.50;99.90;;;;;;5033437;28;20143;-75
2023/11/23 06:50:20;;;;;;;18.42;3.92;;;10.60;99.90;;;;;;5026832;28;20124;-75
2023/11/23 06:52:46;;;;;;;14.90;3.20;;;10.50;99.90;;;;;;5027609;28;20045;-75
2023/11/23 06:55:14;;;;;;;15.35;3.58;;;10.60;99.90;;;;;;5011664;28;20037;-75
2023/11/23 06:57:46;;;;;;;15.93;3.42;;;10.60;99.90;;;;;;5027711;28;20037;-78
2023/11/23 07:00:22;;;;;;;;;;;10.70;99.90;;;;;;5018685;28;20125;-78
2023/11/23 07:02:58;;;;;;;12.30;2.95;;;10.60;99.90;;;;;;5028408;28;19917;-76
2023/11/23 07:05:25;;;;;;;14.50;3.58;;;10.70;99.90;;;;;;5006671;28;20142;-77
2023/11/23 07:07:51;;;;;;;12.35;3.08;;;10.70;99.90;;;;;;5030563;28;20124;-77
2023/11/23 07:10:17;;;;;;;14.93;3.33;;;10.70;99.90;;;;;;5019185;28;20520;-77
2023/11/23 07:12:44;;;;;;;13.57;3.63;;;10.70;99.90;;;;;;5045933;28;20042;-77
2023/11/23 07:15:12;;;;;;;16.42;3.28;;;10.70;99.90;;;;;;5007370;28;20045;-77
2023/11/23 07:17:38;;;;;;;19.85;3.97;;;10.70;99.90;;;;;;5028553;28;20041;-77
2023/11/23 07:20:07;;;;;;;12.35;3.08;;;10.70;99.90;;;;;;5024914;28;20121;-77
2023/11/23 07:22:33;;;;;;;16.63;3.35;;;10.80;99.90;;;;;;5019117;28;20117;-76
2023/11/23 07:25:00;;;;;;;21.17;3.90;;;10.80;99.90;;;;;;5030791;28;20072;-77
2023/11/23 07:27:26;;;;;;;15.90;3.63;;;10.80;99.90;;;;;;5024890;28;20051;-79
2023/11/23 07:29:52;;;;;;;24.10;3.65;;;10.80;99.90;;;;;;5031275;28;20047;-77
2023/11/23 07:32:17;;;;;;;17.40;3.67;;;10.80;99.90;;;;;;5028948;28;20392;-77
2023/11/23 07:34:43;;;;;;;19.65;3.00;;;10.80;99.90;;;;;;5015413;28;20375;-76
2023/11/23 07:37:10;;;;;;;16.73;3.40;;;10.80;99.90;;;;;;5023870;28;20038;-76
2023/11/23 07:39:36;;;;;;;17.20;3.50;;;10.80;99.90;;;;;;5025584;28;20440;-76
2023/11/23 07:42:03;;;;;;;12.43;3.60;;;10.80;99.90;;;;;;5027392;28;20129;-76
2023/11/23 07:44:29;;;;;;;13.50;3.03;;;10.80;99.90;;;;;;5047073;28;20090;-76
2023/11/23 07:46:54;;;;;;;15.02;3.70;;;10.80;99.90;;;;;;5028485;28;20545;-76
2023/11/23 07:49:20;;;;;;;21.10;3.85;;;10.80;99.90;;;;;;5040277;28;20049;-77
2023/11/23 07:51:46;;;;;;;18.98;3.35;;;10.80;99.90;;;;;;5021075;28;20156;-76
2023/11/23 07:54:13;;;;;;;17.88;3.25;;;10.80;99.90;;;;;;5024718;28;20525;-76
2023/11/23 07:56:40;;;;;;;17.25;3.13;;;10.80;99.90;;;;;;5014808;28;20040;-76
2023/11/23 07:59:07;;;;;;;12.70;2.95;;;10.80;99.90;;;;;;5024056;28;20047;-76
2023/11/23 08:01:32;;;;;;;22.20;3.45;;;10.90;99.90;;;;;;5020577;28;20406;-77
2023/11/23 08:03:58;;;;;;;18.35;3.25;;;10.80;99.90;;;;;;5028565;28;20037;-77
2023/11/23 08:06:24;;;;;;;16.17;3.50;;;10.90;99.90;;;;;;5019332;28;20502;-77
2023/11/23 08:08:50;;;;;;;16.33;3.22;;;10.90;99.90;;;;;;5032217;28;20044;-77
2023/11/23 08:11:17;;;;;;;15.88;3.25;;;10.90;99.90;;;;;;5048268;28;20036;-77
2023/11/23 08:13:42;;;;;;;11.77;2.90;;;10.90;99.90;;;;;;5030340;28;20398;-76
2023/11/23 08:16:08;;;;;;;17.05;2.97;;;10.90;99.90;;;;;;5048008;28;20040;-76
2023/11/23 08:18:34;;;;;;;13.52;3.05;;;11.00;99.90;;;;;;5011977;28;20071;-75
2023/11/23 08:21:00;;;;;;;55.88;6.97;;;11.00;99.90;;;;;;5021410;28;20073;-76
2023/11/23 08:23:27;;;;;;;25.02;4.15;;;11.00;99.90;;;;;;5021318;28;20565;-76
2023/11/23 08:25:56;;;;;;;12.63;2.70;;;11.10;99.90;;;;;;5024092;28;20072;-76
2023/11/23 08:28:22;;;;;;;13.98;3.05;;;11.10;99.90;;;;;;5026434;28;20045;-76
2023/11/23 08:30:47;;;;;;;14.85;3.55;;;11.10;99.90;;;;;;5027240;28;20037;-76
2023/11/23 08:33:15;;;;;;;12.55;2.95;;;11.10;99.90;;;;;;5030722;28;20069;-76
2023/11/23 08:35:41;;;;;;;25.80;4.88;;;11.10;99.90;;;;;;5020943;28;20061;-76
2023/11/23 08:38:06;;;;;;;16.30;3.42;;;11.10;99.90;;;;;;5033167;28;20067;-76
2023/11/23 08:40:32;;;;;;;11.90;2.95;;;11.20;99.90;;;;;;5029253;28;20559;-76
2023/11/23 08:43:17;;;;;;;12.30;3.22;;;11.20;99.90;;;;;;5042851;28;20087;-78
2023/11/23 08:45:42;;;;;;;14.57;3.13;;;11.20;99.90;;;;;;5024691;28;20069;-76
2023/11/23 08:48:08;;;;;;;18.02;3.42;;;11.20;99.90;;;;;;5037992;28;20076;-76
2023/11/23 08:50:34;;;;;;;15.88;3.20;;;11.20;99.90;;;;;;5021172;28;20041;-76
2023/11/23 08:53:01;;;;;;;10.85;3.05;;;11.30;99.90;;;;;;5031307;28;20067;-76
2023/11/23 08:55:28;;;;;;;15.23;3.03;;;11.30;99.90;;;;;;5046403;28;20041;-77
2023/11/23 08:57:53;;;;;;;14.35;3.00;;;11.30;99.90;;;;;;5026954;28;20469;-76
2023/11/23 09:00:23;;;;;;;10.77;3.35;;;11.30;99.90;;;;;;5033144;28;20131;-76
2023/11/23 09:02:53;;;;;;;11.30;2.90;;;11.30;99.90;;;;;;5034317;28;20670;-77
2023/11/23 09:05:20;;;;;;;19.88;3.20;;;11.30;99.90;;;;;;5029491;28;20099;-76
2023/11/23 09:07:49;;;;;;;10.23;2.33;;;11.30;99.90;;;;;;5025295;28;20090;-78
2023/11/23 09:10:16;;;;;;;14.55;2.80;;;11.30;99.90;;;;;;5029699;28;20049;-78
2023/11/23 09:12:42;;;;;;;12.50;2.60;;;11.30;99.90;;;;;;5049815;28;20033;-76
2023/11/23 09:15:10;;;;;;;14.70;2.85;;;11.40;99.90;;;;;;5052102;28;20493;-77
2023/11/23 09:17:36;;;;;;;13.77;2.75;;;11.40;99.90;;;;;;5041657;28;20037;-77
2023/11/23 09:20:04;;;;;;;11.07;2.67;;;11.40;99.90;;;;;;5041744;28;20486;-76
2023/11/23 09:22:33;;;;;;;11.13;3.45;;;11.50;99.90;;;;;;5043078;28;20040;-76
2023/11/23 09:24:59;;;;;;;17.60;3.00;;;11.50;99.90;;;;;;5025985;28;20136;-76
2023/11/23 09:27:25;;;;;;;13.25;2.70;;;11.50;99.90;;;;;;5047062;28;20061;-76
2023/11/23 09:29:50;;;;;;;12.70;2.72;;;11.60;99.90;;;;;;5007378;28;20041;-76
2023/11/23 09:32:16;;;;;;;11.88;2.65;;;11.70;99.90;;;;;;5027853;28;20048;-76
2023/11/23 09:34:41;;;;;;;14.65;3.05;;;11.70;99.90;;;;;;5020192;28;20112;-76
2023/11/23 09:37:07;;;;;;;12.43;2.88;;;11.80;99.90;;;;;;5042286;28;20037;-76
2023/11/23 09:39:34;;;;;;;14.23;2.90;;;11.80;99.90;;;;;;5021844;28;20048;-76
2023/11/23 09:42:03;;;;;;;15.82;3.35;;;11.80;99.90;;;;;;5041394;28;20537;-76
2023/11/23 09:44:29;;;;;;;11.13;3.15;;;11.90;99.90;;;;;;5036142;28;20088;-76
2023/11/23 09:46:56;;;;;;;11.20;2.53;;;11.90;99.90;;;;;;5026253;28;20037;-76
2023/11/23 09:49:25;;;;;;;14.13;2.70;;;11.90;99.90;;;;;;5029551;28;20041;-76
2023/11/23 09:51:52;;;;;;;13.60;2.60;;;11.90;99.90;;;;;;5021471;28;20056;-75
2023/11/23 09:54:20;;;;;;;12.18;2.55;;;11.90;99.90;;;;;;5027935;28;20070;-76
2023/11/23 09:56:47;;;;;;;16.02;3.35;;;11.90;99.90;;;;;;5007834;28;20041;-76
2023/11/23 09:59:14;;;;;;;9.38;2.13;;;11.90;99.90;;;;;;5016825;28;20098;-77
2023/11/23 10:01:43;;;;;;;12.05;2.78;;;12.00;99.90;;;;;;5009633;28;20056;-76
2023/11/23 10:04:09;;;;;;;9.15;2.50;;;12.00;99.90;;;;;;5023687;28;20128;-76
2023/11/23 10:06:36;;;;;;;10.25;2.72;;;12.30;99.90;;;;;;5024391;28;20186;-75
2023/11/23 10:09:02;;;;;;;8.43;2.05;;;12.10;99.90;;;;;;5026463;28;20413;-78
2023/11/23 10:11:28;;;;;;;11.95;2.20;;;12.20;99.90;;;;;;5045476;28;20033;-76
2023/11/23 10:13:54;;;;;;;11.52;2.95;;;12.30;99.90;;;;;;5030492;28;20052;-75
2023/11/23 10:16:19;;;;;;;12.75;2.33;;;12.30;99.90;;;;;;5028561;28;20049;-75
2023/11/23 10:18:46;;;;;;;11.38;2.33;;;12.30;99.90;;;;;;5023783;28;20430;-76
2023/11/23 10:21:12;;;;;;;12.13;2.78;;;12.30;99.90;;;;;;5022150;28;20053;-76
2023/11/23 10:23:40;;;;;;;10.93;2.28;;;12.30;99.90;;;;;;5041255;28;20053;-75
2023/11/23 10:26:09;;;;;;;8.73;2.17;;;12.70;99.90;;;;;;5027656;28;20044;-76
2023/11/23 10:28:38;;;;;;;12.30;2.70;;;12.50;99.90;;;;;;5026651;28;20028;-76
2023/11/23 10:31:05;;;;;;;11.35;3.20;;;12.40;99.90;;;;;;5017418;28;20049;-76
2023/11/23 10:33:37;;;;;;;15.77;2.50;;;12.40;99.90;;;;;;5026639;28;20033;-76
2023/11/23 10:36:04;;;;;;;;;;;12.40;99.90;;;;;;5019473;28;20525;-76
2023/11/23 10:38:37;;;;;;;11.95;2.80;;;12.40;99.90;;;;;;5020521;28;19921;-76
2023/11/23 10:41:08;;;;;;;10.30;2.63;;;12.40;99.90;;;;;;5035739;28;20068;-76
2023/11/23 10:43:36;;;;;;;15.52;2.70;;;12.50;99.90;;;;;;5018883;28;20462;-76
2023/11/23 10:46:07;;;;;;;14.43;2.63;;;12.50;99.90;;;;;;5046084;28;20053;-76
2023/11/23 10:48:34;;;;;;;6.20;2.03;;;12.50;99.90;;;;;;5018622;28;20047;-75
2023/11/23 10:51:03;;;;;;;10.57;2.30;;;12.60;99.90;;;;;;5014520;28;20041;-76
2023/11/23 10:53:29;;;;;;;10.40;2.75;;;12.60;99.90;;;;;;5022385;28;20036;-76
2023/11/23 10:55:57;;;;;;;10.75;2.58;;;12.60;99.90;;;;;;5026551;28;20032;-76
2023/11/23 10:58:23;;;;;;;7.75;2.40;;;12.60;99.90;;;;;;5026608;28;20047;-76
2023/11/23 11:00:51;;;;;;;10.85;2.35;;;12.60;99.90;;;;;;5025808;28;20040;-76
2023/11/23 11:03:17;;;;;;;9.30;2.15;;;12.50;99.90;;;;;;5023961;28;20075;-76
2023/11/23 11:05:47;;;;;;;9.75;2.38;;;12.50;99.90;;;;;;5026973;28;20040;-76
2023/11/23 11:08:18;;;;;;;10.10;2.17;;;12.50;99.90;;;;;;5021919;28;20071;-76
2023/11/23 11:10:50;;;;;;;8.88;2.30;;;12.50;99.90;;;;;;5023541;28;20049;-76
2023/11/23 11:13:39;;;;;;;13.55;3.08;;;12.40;99.90;;;;;;5043124;28;20036;-76
2023/11/23 11:16:09;;;;;;;9.75;2.58;;;12.50;99.90;;;;;;5043159;28;20041;-76
2023/11/23 11:18:35;;;;;;;10.38;2.30;;;12.50;99.90;;;;;;5014055;28;20044;-76
2023/11/23 11:21:11;;;;;;;5.90;1.83;;;12.50;99.90;;;;;;5035621;28;20111;-76
2023/11/23 11:23:51;;;;;;;14.13;2.28;;;12.50;99.90;;;;;;5019815;28;20049;-76
2023/11/23 11:26:27;;;;;;;9.52;2.58;;;12.50;99.90;;;;;;5014549;28;20054;-76
2023/11/23 11:28:54;;;;;;;8.52;2.25;;;12.50;99.90;;;;;;5027298;28;20037;-76
2023/11/23 11:31:33;;;;;;;11.85;2.15;;;12.50;99.90;;;;;;5027710;28;20072;-76
2023/11/23 11:34:14;;;;;;;8.63;2.72;;;12.50;99.90;;;;;;5036048;28;20624;-77
2023/11/23 11:36:40;;;;;;;9.88;3.13;;;12.60;99.90;;;;;;5019172;28;20551;-76
2023/11/23 11:39:06;;;;;;;12.52;2.17;;;12.50;99.90;;;;;;5020041;28;20508;-77
2023/11/23 11:41:36;;;;;;;8.73;2.33;;;12.50;99.90;;;;;;5021533;28;20048;-76
2023/11/23 11:44:05;;;;;;;9.63;2.22;;;12.50;99.90;;;;;;5020657;28;20041;-75
2023/11/23 11:46:33;;;;;;;12.63;2.20;;;12.50;99.90;;;;;;5022670;28;20041;-75
2023/11/23 11:48:59;;;;;;;12.38;2.55;;;12.50;99.90;;;;;;5020415;28;20117;-75
2023/11/23 11:51:29;;;;;;;11.07;2.70;;;12.60;99.90;;;;;;5029212;28;20315;-75
2023/11/23 11:53:56;;;;;;;9.40;2.75;;;12.60;99.90;;;;;;5046617;28;20040;-75
2023/11/23 11:56:24;;;;;;;7.03;2.30;;;12.60;99.90;;;;;;5045130;28;20087;-75
2023/11/23 11:58:51;;;;;;;9.88;2.67;;;12.60;99.90;;;;;;5043678;28;20090;-75
2023/11/23 12:01:17;;;;;;;7.95;2.05;;;12.60;99.90;;;;;;5008782;28;20045;-75
2023/11/23 12:03:44;;;;;;;7.90;2.13;;;12.60;99.90;;;;;;5020753;28;20045;-75
2023/11/23 12:06:10;;;;;;;10.52;2.35;;;12.70;99.90;;;;;;5012102;28;20052;-75
2023/11/23 12:08:36;;;;;;;11.93;2.63;;;12.70;99.90;;;;;;5027589;28;20498;-75
2023/11/23 12:11:03;;;;;;;8.27;2.15;;;12.70;99.90;;;;;;5025138;28;20406;-75
2023/11/23 12:13:31;;;;;;;13.57;2.60;;;12.70;99.90;;;;;;5035541;28;20045;-76
2023/11/23 12:15:56;;;;;;;14.23;2.50;;;12.80;99.90;;;;;;5019049;28;20048;-75
2023/11/23 12:18:33;;;;;;;13.40;2.42;;;12.90;99.90;;;;;;5026400;28;20045;-75
2023/11/23 12:20:59;;;;;;;12.50;2.60;;;12.80;99.90;;;;;;5022969;28;20088;-75
2023/11/23 12:23:26;;;;;;;10.70;2.40;;;12.80;99.90;;;;;;5033643;28;20053;-75
2023/11/23 12:25:53;;;;;;;10.25;2.45;;;12.80;99.90;;;;;;5032776;28;20044;-75
2023/11/23 12:28:20;;;;;;;11.98;2.50;;;12.80;99.90;;;;;;5042525;28;20046;-76
2023/11/23 12:30:46;;;;;;;13.93;2.75;;;12.80;99.90;;;;;;5038110;28;20045;-76
2023/11/23 12:33:12;;;;;;;11.90;2.17;;;12.80;99.90;;;;;;5021489;28;20049;-76
2023/11/23 12:35:39;;;;;;;8.77;2.60;;;12.70;99.90;;;;;;5028929;28;20533;-78